Time;durP1;ratioP1;P1;durP2;ratioP2;P2;SDS_P1;SDS_P2;PMS_P1;PMS_P2;Temp;Humidity;BMP_temperature;BMP_pressure;BME280_temperature;BME280_humidity;BME280_pressure;Samples;Min_cycle;Max_cycle;Signal;HPM_P1;HPM_P2
2021/01/23 00:03:05;;;;;;;2.95;2.42;;;16.00;63.80;;;;;;10274581;28;20159;-61
2021/01/23 00:08:06;;;;;;;3.63;2.58;;;16.00;63.70;;;;;;10270569;28;20027;-61
2021/01/23 00:13:06;;;;;;;3.50;2.75;;;16.00;63.80;;;;;;10284182;28;20567;-62
2021/01/23 00:18:07;;;;;;;3.55;2.75;;;16.00;63.90;;;;;;10298475;28;20035;-61
2021/01/23 00:23:08;;;;;;;4.22;2.65;;;16.00;64.00;;;;;;10281041;28;20031;-61
2021/01/23 00:28:09;;;;;;;4.00;2.28;;;16.00;63.90;;;;;;10289027;28;20117;-61
2021/01/23 00:33:09;;;;;;;3.53;2.30;;;16.00;63.90;;;;;;10288099;28;20131;-62
2021/01/23 00:38:10;;;;;;;4.95;2.83;;;15.90;63.80;;;;;;10284672;28;20118;-61
2021/01/23 00:43:11;;;;;;;3.20;2.15;;;15.90;63.80;;;;;;10273308;28;20038;-62
2021/01/23 00:48:12;;;;;;;3.13;2.08;;;15.90;63.80;;;;;;10290557;28;20109;-62
2021/01/23 00:53:13;;;;;;;3.83;2.42;;;15.90;63.80;;;;;;10285684;28;20033;-62
2021/01/23 00:58:14;;;;;;;3.70;2.30;;;15.90;63.60;;;;;;10279287;28;20037;-61
2021/01/23 01:03:14;;;;;;;3.10;2.45;;;15.90;63.60;;;;;;10275001;28;20177;-61
2021/01/23 01:08:15;;;;;;;3.10;2.33;;;15.80;63.60;;;;;;10269828;28;20570;-61
2021/01/23 01:13:17;;;;;;;5.75;3.15;;;15.80;63.60;;;;;;10263958;28;20387;-61
2021/01/23 01:18:18;;;;;;;3.58;2.75;;;15.80;63.50;;;;;;10281383;28;20122;-62
2021/01/23 01:23:19;;;;;;;3.78;2.60;;;15.80;63.60;;;;;;10274104;28;20105;-62
2021/01/23 01:28:19;;;;;;;3.55;2.63;;;15.80;63.60;;;;;;10283989;28;20121;-62
2021/01/23 01:33:20;;;;;;;3.60;2.20;;;15.80;63.70;;;;;;10271072;28;20110;-62
2021/01/23 01:38:21;;;;;;;4.43;2.40;;;15.70;63.60;;;;;;10270854;28;20042;-62
2021/01/23 01:43:21;;;;;;;2.95;2.30;;;15.70;63.60;;;;;;10265020;28;20073;-61
2021/01/23 01:48:22;;;;;;;3.25;2.35;;;15.70;63.60;;;;;;10285242;28;20047;-62
2021/01/23 01:53:23;;;;;;;3.15;2.25;;;15.70;63.60;;;;;;10274589;28;20042;-62
2021/01/23 01:58:24;;;;;;;3.17;2.22;;;15.70;63.60;;;;;;10287959;28;20023;-62
2021/01/23 02:03:38;;;;;;;3.08;2.40;;;15.70;63.60;;;;;;10290682;28;20082;-62
2021/01/23 02:09:17;;;;;;;3.03;2.40;;;15.70;63.50;;;;;;10277145;28;20030;-62
2021/01/23 02:14:55;;;;;;;3.10;2.28;;;15.70;63.40;;;;;;10252865;28;20058;-62
2021/01/23 02:20:22;;;;;;;3.05;2.35;;;15.70;63.50;;;;;;10269311;28;20050;-61
2021/01/23 02:25:25;;;;;;;5.05;2.63;;;15.60;63.50;;;;;;10270779;28;20365;-62
2021/01/23 02:30:38;;;;;;;3.05;2.42;;;15.60;63.50;;;;;;10263259;28;20476;-62
2021/01/23 02:35:42;;;;;;;3.72;2.42;;;15.60;63.50;;;;;;10282332;28;20030;-61
2021/01/23 02:40:43;;;;;;;3.67;2.63;;;15.60;63.50;;;;;;10299721;28;20045;-62
2021/01/23 02:45:48;;;;;;;3.85;2.10;;;15.60;63.60;;;;;;10269863;28;20023;-62
2021/01/23 02:50:50;;;;;;;4.03;2.22;;;15.60;63.60;;;;;;10267926;28;20110;-62
2021/01/23 02:55:59;;;;;;;3.22;2.53;;;15.50;63.50;;;;;;10255184;28;20042;-62
2021/01/23 03:01:02;;;;;;;3.47;2.33;;;15.50;63.50;;;;;;10280646;28;20487;-62
2021/01/23 03:06:05;;;;;;;4.93;2.40;;;15.50;63.40;;;;;;10287019;28;20090;-62
2021/01/23 03:11:07;;;;;;;2.72;2.03;;;15.50;63.40;;;;;;10281995;28;20382;-62
2021/01/23 03:16:08;;;;;;;3.85;2.97;;;15.50;63.30;;;;;;10274896;28;20027;-61
2021/01/23 03:21:09;;;;;;;3.95;2.78;;;15.50;63.40;;;;;;10275862;28;20531;-62
2021/01/23 03:26:10;;;;;;;3.13;2.33;;;15.50;63.40;;;;;;10271546;28;20078;-61
2021/01/23 03:31:10;;;;;;;3.17;2.20;;;15.40;63.30;;;;;;10287296;28;20088;-62
2021/01/23 03:36:11;;;;;;;3.28;2.35;;;15.40;63.50;;;;;;10290597;28;20475;-62
2021/01/23 03:41:11;;;;;;;3.33;2.55;;;15.40;63.40;;;;;;10283723;28;20105;-61
2021/01/23 03:46:13;;;;;;;4.00;2.40;;;15.40;63.30;;;;;;10280302;28;20094;-61
2021/01/23 03:51:14;;;;;;;4.18;2.70;;;15.40;63.40;;;;;;10270808;28;20368;-61
2021/01/23 03:56:14;;;;;;;4.07;2.42;;;15.40;63.40;;;;;;10271645;28;20027;-61
2021/01/23 04:01:15;;;;;;;4.28;2.20;;;15.40;63.40;;;;;;10287620;28;20089;-61
2021/01/23 04:06:16;;;;;;;4.20;2.55;;;15.30;63.20;;;;;;10288201;28;20537;-61
2021/01/23 04:11:16;;;;;;;2.65;1.85;;;15.30;63.20;;;;;;10283224;28;20497;-61
2021/01/23 04:16:17;;;;;;;3.42;2.28;;;15.30;63.20;;;;;;10276838;28;20049;-61
2021/01/23 04:21:18;;;;;;;3.53;2.22;;;15.30;63.20;;;;;;10271251;28;20027;-61
2021/01/23 04:26:18;;;;;;;4.00;2.50;;;15.30;63.20;;;;;;10270152;28;20109;-61
2021/01/23 04:31:20;;;;;;;2.90;2.00;;;15.30;63.30;;;;;;10280737;28;20030;-61
2021/01/23 04:36:20;;;;;;;3.72;2.60;;;15.30;63.20;;;;;;10281300;28;20122;-61
2021/01/23 04:41:24;;;;;;;3.00;1.85;;;15.20;63.20;;;;;;10275006;28;20035;-61
2021/01/23 04:46:25;;;;;;;2.88;2.15;;;15.20;63.10;;;;;;10275983;28;20457;-61
2021/01/23 04:51:26;;;;;;;2.58;1.83;;;15.20;63.00;;;;;;10266855;28;20047;-61
2021/01/23 04:56:27;;;;;;;3.45;2.35;;;15.20;63.10;;;;;;10257609;28;20448;-61
2021/01/23 05:01:28;;;;;;;3.35;2.30;;;15.20;63.00;;;;;;10289107;28;20551;-61
2021/01/23 05:06:29;;;;;;;2.97;2.25;;;15.20;63.00;;;;;;10289057;28;20137;-62
2021/01/23 05:11:47;;;;;;;2.58;2.13;;;15.20;63.10;;;;;;10280540;28;20073;-62
2021/01/23 05:16:48;;;;;;;2.83;2.20;;;15.20;63.20;;;;;;10279440;28;20065;-62
2021/01/23 05:22:01;;;;;;;3.40;2.20;;;15.20;63.10;;;;;;10269033;28;20115;-61
2021/01/23 05:27:02;;;;;;;3.10;2.05;;;15.20;63.10;;;;;;10274748;28;20047;-61
2021/01/23 05:32:16;;;;;;;3.80;2.65;;;15.10;63.00;;;;;;10278886;28;20047;-61
2021/01/23 05:37:34;;;;;;;3.88;2.00;;;15.10;63.00;;;;;;10280617;28;20498;-62
2021/01/23 05:42:43;;;;;;;2.70;1.98;;;15.10;62.90;;;;;;10272842;28;20031;-61
2021/01/23 05:47:44;;;;;;;1.95;1.65;;;15.10;63.00;;;;;;10274442;28;20042;-61
2021/01/23 05:52:44;;;;;;;3.58;2.13;;;15.10;63.00;;;;;;10260558;28;20479;-62
2021/01/23 05:57:46;;;;;;;2.53;1.90;;;15.10;63.10;;;;;;10271533;28;20106;-62
2021/01/23 06:02:47;;;;;;;3.45;2.03;;;15.00;63.00;;;;;;10273383;28;20077;-62
2021/01/23 06:07:48;;;;;;;3.30;2.15;;;15.00;63.00;;;;;;10283263;28;20046;-61
2021/01/23 06:12:50;;;;;;;2.75;2.15;;;15.00;63.00;;;;;;10279192;28;20018;-62
2021/01/23 06:17:51;;;;;;;2.97;2.25;;;15.00;62.90;;;;;;10273058;28;20037;-62
2021/01/23 06:22:55;;;;;;;3.92;2.50;;;15.00;62.90;;;;;;10267144;28;20093;-61
2021/01/23 06:27:56;;;;;;;3.70;2.20;;;15.00;63.00;;;;;;10277145;28;20031;-61
2021/01/23 06:32:56;;;;;;;2.67;1.65;;;15.00;62.90;;;;;;10285647;28;20471;-61
2021/01/23 06:38:12;;;;;;;2.97;2.08;;;15.00;63.00;;;;;;10280591;28;20371;-61
2021/01/23 06:43:13;;;;;;;2.70;1.75;;;15.00;63.00;;;;;;10284274;28;20430;-61
2021/01/23 06:48:14;;;;;;;2.22;1.60;;;14.90;62.90;;;;;;10274054;28;20037;-61
2021/01/23 06:53:25;;;;;;;2.00;1.60;;;14.90;63.00;;;;;;10257981;28;20024;-61
2021/01/23 06:58:35;;;;;;;3.15;1.77;;;14.90;62.90;;;;;;10253981;28;20039;-61
2021/01/23 07:03:36;;;;;;;2.75;1.75;;;14.90;62.90;;;;;;10296324;28;20047;-61
2021/01/23 07:08:37;;;;;;;2.60;1.80;;;14.90;62.90;;;;;;10293540;28;20030;-60
2021/01/23 07:13:58;;;;;;;4.03;1.58;;;14.90;62.90;;;;;;10282676;28;20576;-61
2021/01/23 07:19:02;;;;;;;2.67;1.60;;;14.90;62.80;;;;;;10281961;28;20556;-61
2021/01/23 07:24:03;;;;;;;2.97;2.05;;;14.90;62.80;;;;;;10278899;28;20019;-61
2021/01/23 07:29:04;;;;;;;4.00;2.15;;;14.90;62.90;;;;;;10289067;28;20039;-61
2021/01/23 07:34:11;;;;;;;2.47;1.70;;;14.80;62.80;;;;;;10289310;28;20035;-61
2021/01/23 07:39:17;;;;;;;3.28;1.90;;;14.80;62.80;;;;;;10277391;28;20031;-60
2021/01/23 07:44:20;;;;;;;3.28;1.60;;;14.80;62.90;;;;;;10271844;28;20034;-61
2021/01/23 07:49:26;;;;;;;2.05;1.65;;;14.80;62.80;;;;;;10275867;28;20455;-61
2021/01/23 07:54:27;;;;;;;2.63;1.90;;;14.80;62.80;;;;;;10279083;28;20050;-61
2021/01/23 07:59:50;;;;;;;2.75;1.70;;;14.80;62.70;;;;;;10264603;28;20035;-61
2021/01/23 08:04:53;;;;;;;3.08;1.90;;;14.80;62.70;;;;;;10294159;28;20058;-61
2021/01/23 08:10:09;;;;;;;2.75;1.90;;;14.80;62.70;;;;;;10286255;28;20356;-61
2021/01/23 08:15:11;;;;;;;2.30;1.42;;;14.80;62.70;;;;;;10283781;28;20183;-61
2021/01/23 08:20:38;;;;;;;2.55;1.70;;;14.80;62.60;;;;;;10272978;28;20110;-60
2021/01/23 08:25:44;;;;;;;3.50;2.05;;;14.70;62.70;;;;;;10284345;28;20034;-60
2021/01/23 08:30:45;;;;;;;2.75;1.80;;;14.70;62.70;;;;;;10289465;28;20085;-60
2021/01/23 08:35:46;;;;;;;1.83;1.48;;;14.70;62.90;;;;;;10289596;28;20154;-60
2021/01/23 08:40:46;;;;;;;2.30;1.88;;;14.70;62.80;;;;;;10276469;28;20383;-60
2021/01/23 08:45:47;;;;;;;3.33;2.03;;;14.70;62.90;;;;;;10271046;28;20054;-61
2021/01/23 08:50:48;;;;;;;2.13;1.38;;;14.70;62.80;;;;;;10273864;28;20118;-60
2021/01/23 08:55:49;;;;;;;2.05;1.38;;;14.70;62.80;;;;;;10283109;28;20077;-60
2021/01/23 09:00:49;;;;;;;2.50;1.52;;;14.70;62.80;;;;;;10285146;28;20038;-60
2021/01/23 09:05:50;;;;;;;2.47;1.50;;;14.70;62.80;;;;;;10278590;28;20144;-60
2021/01/23 09:10:51;;;;;;;2.00;1.17;;;14.70;62.80;;;;;;10272048;28;20031;-60
2021/01/23 09:15:51;;;;;;;1.80;1.30;;;14.70;63.30;;;;;;10266291;28;20466;-60
2021/01/23 09:20:52;;;;;;;1.58;1.20;;;14.60;63.10;;;;;;10259769;28;20023;-60
2021/01/23 09:25:53;;;;;;;2.30;1.27;;;14.60;63.90;;;;;;10275358;28;20158;-61
2021/01/23 09:30:54;;;;;;;2.10;1.50;;;14.60;64.10;;;;;;10276570;28;20030;-60
2021/01/23 09:35:55;;;;;;;2.13;1.48;;;14.70;64.10;;;;;;10275848;28;20035;-60
2021/01/23 09:40:56;;;;;;;2.53;1.40;;;14.70;64.10;;;;;;10263879;28;20051;-60
2021/01/23 09:45:57;;;;;;;2.42;1.17;;;14.70;64.10;;;;;;10270571;28;20046;-60
2021/01/23 09:50:57;;;;;;;1.90;1.20;;;14.70;64.00;;;;;;10259374;28;20038;-60
2021/01/23 09:55:58;;;;;;;1.98;1.17;;;14.70;64.10;;;;;;10283159;28;20114;-61
2021/01/23 10:00:59;;;;;;;2.17;1.35;;;14.70;64.00;;;;;;10271146;28;20038;-61
2021/01/23 10:05:59;;;;;;;1.95;1.67;;;14.70;64.00;;;;;;10265879;28;20072;-60
2021/01/23 10:11:00;;;;;;;1.77;1.20;;;14.70;64.00;;;;;;10259933;28;20101;-61
2021/01/23 10:16:01;;;;;;;2.28;1.40;;;14.70;63.90;;;;;;10267037;28;20039;-60
2021/01/23 10:21:05;;;;;;;2.90;2.03;;;14.80;63.90;;;;;;10277151;28;20400;-60
2021/01/23 10:26:06;;;;;;;1.75;1.05;;;14.80;63.70;;;;;;10277021;28;20031;-60
2021/01/23 10:31:07;;;;;;;1.95;1.15;;;14.80;63.90;;;;;;10265880;28;20039;-60
2021/01/23 10:36:08;;;;;;;2.25;1.42;;;14.80;63.90;;;;;;10260078;28;20035;-60
2021/01/23 10:41:08;;;;;;;2.35;1.17;;;14.80;63.80;;;;;;10281784;28;20436;-60
2021/01/23 10:46:09;;;;;;;2.78;1.40;;;14.80;63.80;;;;;;10300755;28;20066;-60
2021/01/23 10:51:10;;;;;;;1.70;1.00;;;14.80;63.70;;;;;;10287132;28;20492;-61
2021/01/23 10:56:10;;;;;;;2.33;1.20;;;14.80;63.70;;;;;;10275633;28;20431;-60
2021/01/23 11:01:11;;;;;;;2.70;1.20;;;14.80;63.70;;;;;;10272918;28;20037;-61
2021/01/23 11:06:12;;;;;;;2.17;1.38;;;14.80;63.80;;;;;;10263225;28;20046;-61
2021/01/23 11:11:12;;;;;;;1.77;1.42;;;14.80;63.70;;;;;;10256551;28;20104;-61
2021/01/23 11:16:13;;;;;;;1.67;1.20;;;14.80;63.70;;;;;;10255632;28;20043;-61
2021/01/23 11:21:14;;;;;;;1.20;0.93;;;14.80;63.70;;;;;;10284365;28;20423;-61
2021/01/23 11:26:14;;;;;;;2.33;1.02;;;14.80;63.70;;;;;;10272411;28;20106;-60
2021/01/23 11:31:15;;;;;;;2.20;1.17;;;14.80;63.70;;;;;;10296035;28;20054;-61
2021/01/23 11:36:16;;;;;;;2.55;1.20;;;14.80;63.70;;;;;;10257269;28;20027;-61
2021/01/23 11:41:17;;;;;;;1.73;1.10;;;14.80;63.80;;;;;;10261744;28;20039;-61
2021/01/23 11:46:18;;;;;;;2.42;1.10;;;14.80;63.80;;;;;;10301580;28;20031;-60
2021/01/23 11:51:19;;;;;;;2.13;1.35;;;14.70;63.90;;;;;;10289863;28;20097;-60
2021/01/23 11:56:19;;;;;;;2.03;1.30;;;14.70;63.90;;;;;;10295923;28;20031;-60
2021/01/23 12:01:20;;;;;;;3.00;1.08;;;14.70;64.00;;;;;;10286771;28;20038;-61
2021/01/23 12:06:21;;;;;;;1.60;1.10;;;14.70;64.60;;;;;;10272610;28;20595;-60
2021/01/23 12:11:21;;;;;;;2.35;1.10;;;14.70;63.80;;;;;;10270543;28;20031;-61
2021/01/23 12:16:22;;;;;;;1.48;1.02;;;14.70;63.90;;;;;;10258621;28;20072;-61
2021/01/23 12:21:23;;;;;;;1.70;1.20;;;14.60;63.60;;;;;;10285829;28;20069;-61
2021/01/23 12:26:24;;;;;;;1.75;1.30;;;14.60;63.60;;;;;;10279226;28;20023;-60
2021/01/23 12:31:25;;;;;;;2.13;1.23;;;14.60;63.60;;;;;;10277858;28;20050;-61
2021/01/23 12:36:25;;;;;;;1.83;0.90;;;14.60;63.60;;;;;;10263461;28;20197;-61
2021/01/23 12:41:26;;;;;;;1.85;1.20;;;14.60;63.80;;;;;;10269083;28;20023;-61
2021/01/23 12:46:27;;;;;;;1.65;1.00;;;14.60;64.30;;;;;;10290670;28;20073;-61
2021/01/23 12:51:28;;;;;;;2.20;1.02;;;14.50;64.70;;;;;;10283939;28;20434;-61
2021/01/23 12:56:29;;;;;;;1.80;1.13;;;14.60;64.30;;;;;;10278469;28;20126;-61
2021/01/23 13:01:30;;;;;;;1.38;1.10;;;14.60;64.30;;;;;;10275239;28;20034;-61
2021/01/23 13:06:30;;;;;;;1.88;1.15;;;14.60;64.30;;;;;;10266968;28;20054;-61
2021/01/23 13:11:31;;;;;;;2.05;1.20;;;14.50;64.10;;;;;;10296710;28;20138;-61
2021/01/23 13:16:35;;;;;;;1.50;0.80;;;14.60;64.20;;;;;;10269279;28;20046;-61
2021/01/23 13:21:35;;;;;;;1.80;1.48;;;14.50;64.00;;;;;;10274146;28;20035;-61
2021/01/23 13:26:36;;;;;;;1.08;0.73;;;14.50;64.10;;;;;;10275346;28;20046;-60
2021/01/23 13:31:37;;;;;;;1.50;0.75;;;14.50;64.10;;;;;;10276188;28;20035;-61
2021/01/23 13:36:38;;;;;;;1.40;0.80;;;14.50;64.10;;;;;;10271238;28;20110;-61
2021/01/23 13:41:39;;;;;;;1.52;1.10;;;14.50;64.00;;;;;;10266136;28;20093;-61
2021/01/23 13:46:40;;;;;;;1.92;1.13;;;14.50;63.50;;;;;;10261463;28;20773;-61
2021/01/23 13:51:41;;;;;;;1.88;1.25;;;14.50;63.60;;;;;;10279770;28;20043;-61
2021/01/23 13:56:41;;;;;;;1.55;0.90;;;14.50;63.40;;;;;;10288173;28;20050;-61
2021/01/23 14:01:43;;;;;;;1.63;0.90;;;14.50;63.00;;;;;;10283254;28;20035;-61
2021/01/23 14:06:44;;;;;;;2.30;1.40;;;14.50;63.20;;;;;;10279770;28;20039;-61
2021/01/23 14:11:44;;;;;;;1.27;1.00;;;14.50;63.10;;;;;;10276309;28;20463;-61
2021/01/23 14:16:45;;;;;;;1.50;0.93;;;14.50;63.20;;;;;;10278723;28;20109;-61
2021/01/23 14:21:46;;;;;;;1.73;1.10;;;14.50;63.20;;;;;;10268983;28;20041;-61
2021/01/23 14:26:46;;;;;;;1.73;1.10;;;14.40;63.00;;;;;;10259370;28;20110;-61
2021/01/23 14:31:47;;;;;;;3.45;1.70;;;14.50;63.30;;;;;;10286417;28;20046;-61
2021/01/23 14:36:48;;;;;;;1.27;1.00;;;14.50;63.10;;;;;;10281732;28;20110;-61
2021/01/23 14:41:49;;;;;;;2.10;1.30;;;14.50;63.20;;;;;;10276059;28;20106;-61
2021/01/23 14:46:50;;;;;;;1.25;0.80;;;14.50;63.10;;;;;;10276408;28;20416;-60
2021/01/23 14:51:51;;;;;;;1.58;0.90;;;14.40;63.00;;;;;;10264874;28;20035;-61
2021/01/23 14:56:51;;;;;;;1.67;1.13;;;14.40;62.90;;;;;;10258750;28;20035;-61
2021/01/23 15:01:52;;;;;;;1.92;1.27;;;14.40;62.90;;;;;;10264593;28;20106;-61
2021/01/23 15:06:53;;;;;;;1.98;1.15;;;14.40;63.10;;;;;;10287403;28;20039;-61
2021/01/23 15:11:54;;;;;;;1.80;1.15;;;14.40;63.00;;;;;;10271898;28;20026;-62
2021/01/23 15:16:54;;;;;;;1.27;0.85;;;14.40;63.10;;;;;;10286084;28;20051;-61
2021/01/23 15:21:55;;;;;;;1.95;1.00;;;14.40;63.10;;;;;;10284013;28;20106;-61
2021/01/23 15:26:56;;;;;;;2.63;1.17;;;14.40;63.20;;;;;;10271973;28;20400;-61
2021/01/23 15:31:57;;;;;;;2.15;1.15;;;14.40;63.50;;;;;;10263707;28;20061;-61
2021/01/23 15:36:57;;;;;;;1.30;0.90;;;14.30;63.10;;;;;;10261610;28;20094;-61
2021/01/23 15:41:58;;;;;;;2.15;1.25;;;14.30;63.10;;;;;;10292347;28;20042;-61
2021/01/23 15:47:00;;;;;;;2.45;1.10;;;14.30;63.10;;;;;;10285211;28;20122;-61
2021/01/23 15:52:01;;;;;;;1.50;0.80;;;14.30;63.00;;;;;;10292846;28;20030;-60
2021/01/23 15:57:03;;;;;;;1.67;0.95;;;14.30;63.00;;;;;;10295572;28;20031;-60
2021/01/23 16:02:04;;;;;;;1.30;0.90;;;14.30;63.10;;;;;;10270228;28;20034;-61
2021/01/23 16:07:04;;;;;;;1.83;1.00;;;14.30;63.10;;;;;;10292960;28;20039;-62
2021/01/23 16:12:06;;;;;;;2.30;1.10;;;14.30;62.90;;;;;;10285685;28;20043;-62
2021/01/23 16:17:07;;;;;;;1.83;1.00;;;14.30;63.00;;;;;;10279661;28;20074;-62
2021/01/23 16:22:07;;;;;;;2.33;1.38;;;14.30;63.10;;;;;;10307784;28;20045;-62
2021/01/23 16:27:08;;;;;;;2.83;1.17;;;14.30;63.00;;;;;;10269963;28;20094;-61
2021/01/23 16:32:09;;;;;;;2.10;1.38;;;14.20;62.90;;;;;;10290917;28;20150;-62
2021/01/23 16:37:12;;;;;;;2.33;1.30;;;14.20;62.80;;;;;;10286182;28;20535;-62
2021/01/23 16:42:14;;;;;;;1.52;1.05;;;14.20;62.80;;;;;;10279673;28;20073;-62
2021/01/23 16:47:14;;;;;;;2.15;1.30;;;14.20;62.70;;;;;;10272615;28;20033;-60
2021/01/23 16:52:15;;;;;;;1.58;1.20;;;14.20;62.50;;;;;;10272222;28;20118;-61
2021/01/23 16:57:16;;;;;;;2.05;1.30;;;14.20;62.40;;;;;;10270595;28;20031;-61
2021/01/23 17:02:17;;;;;;;2.35;1.20;;;14.20;62.80;;;;;;10261842;28;20118;-61
2021/01/23 17:07:17;;;;;;;2.40;1.45;;;14.20;62.70;;;;;;10255723;28;20463;-61
2021/01/23 17:12:18;;;;;;;2.35;1.38;;;14.20;62.60;;;;;;10289359;28;20100;-61
2021/01/23 17:17:19;;;;;;;2.22;1.40;;;14.20;62.80;;;;;;10273746;28;20029;-61
2021/01/23 17:22:20;;;;;;;2.40;1.60;;;14.10;62.50;;;;;;10281899;28;20070;-61
2021/01/23 17:27:22;;;;;;;1.90;1.55;;;14.10;62.60;;;;;;10266999;28;20491;-61
2021/01/23 17:32:23;;;;;;;2.67;1.70;;;14.10;62.60;;;;;;10267061;28;20031;-62
2021/01/23 17:37:23;;;;;;;3.42;1.55;;;14.10;62.50;;;;;;10283534;28;20439;-62
2021/01/23 17:42:25;;;;;;;2.47;1.58;;;14.10;62.40;;;;;;10284526;28;20541;-62
2021/01/23 17:47:25;;;;;;;2.17;1.40;;;14.10;62.40;;;;;;10293262;28;20109;-61
2021/01/23 17:52:26;;;;;;;1.98;1.25;;;14.10;62.40;;;;;;10271121;28;20077;-62
2021/01/23 17:57:27;;;;;;;2.38;1.52;;;14.10;62.30;;;;;;10280230;28;20066;-61
2021/01/23 18:02:27;;;;;;;2.13;1.30;;;14.10;62.40;;;;;;10272829;28;20031;-62
2021/01/23 18:07:28;;;;;;;1.13;1.00;;;14.10;62.50;;;;;;10266701;28;20043;-62
2021/01/23 18:12:29;;;;;;;2.40;1.67;;;14.10;62.50;;;;;;10279393;28;20040;-62
2021/01/23 18:17:29;;;;;;;2.30;1.23;;;14.10;62.50;;;;;;10254942;28;20042;-62
2021/01/23 18:22:30;;;;;;;2.45;1.58;;;14.10;62.60;;;;;;10276086;28;20058;-61
2021/01/23 18:27:32;;;;;;;1.60;1.20;;;14.00;62.80;;;;;;10275328;28;20154;-61
2021/01/23 18:32:32;;;;;;;2.20;1.45;;;14.00;62.60;;;;;;10266244;28;20086;-62
2021/01/23 18:37:33;;;;;;;2.75;1.40;;;14.00;62.50;;;;;;10260486;28;20542;-62
2021/01/23 18:42:34;;;;;;;3.50;2.42;;;14.00;62.20;;;;;;10255337;28;20110;-62
2021/01/23 18:47:36;;;;;;;2.15;1.38;;;14.00;62.30;;;;;;10281938;28;20468;-62
2021/01/23 18:52:37;;;;;;;2.58;1.60;;;14.00;62.50;;;;;;10270037;28;20054;-62
2021/01/23 18:57:38;;;;;;;2.20;1.52;;;14.00;62.50;;;;;;10286773;28;20478;-61
2021/01/23 19:02:39;;;;;;;2.20;1.55;;;14.00;62.50;;;;;;10292150;28;20114;-62
2021/01/23 19:07:40;;;;;;;3.05;1.95;;;14.00;62.50;;;;;;10272380;28;20065;-62
2021/01/23 19:12:42;;;;;;;3.35;1.92;;;14.00;62.50;;;;;;10285550;28;20388;-62
2021/01/23 19:17:45;;;;;;;3.78;1.50;;;14.00;62.40;;;;;;10260650;28;20035;-61
2021/01/23 19:22:47;;;;;;;1.88;1.35;;;14.00;62.50;;;;;;10282005;28;20043;-61
2021/01/23 19:27:48;;;;;;;2.85;1.88;;;14.00;62.50;;;;;;10284362;28;20027;-61
2021/01/23 19:32:49;;;;;;;2.28;1.70;;;13.90;62.30;;;;;;10272334;28;20035;-61
2021/01/23 19:37:49;;;;;;;3.42;2.45;;;13.90;62.20;;;;;;10266304;28;20188;-61
2021/01/23 19:42:50;;;;;;;2.65;1.63;;;13.90;62.10;;;;;;10295960;28;20387;-61
2021/01/23 19:47:51;;;;;;;2.70;1.73;;;13.90;62.40;;;;;;10283560;28;20146;-61
2021/01/23 19:52:52;;;;;;;2.92;1.70;;;13.90;62.50;;;;;;10289600;28;20383;-61
2021/01/23 19:57:52;;;;;;;2.50;1.65;;;13.90;62.30;;;;;;10284912;28;20366;-61
2021/01/23 20:02:53;;;;;;;3.38;1.98;;;13.90;62.30;;;;;;10275550;28;20395;-61
2021/01/23 20:07:54;;;;;;;2.72;1.70;;;13.90;62.20;;;;;;10271260;28;20105;-61
2021/01/23 20:12:55;;;;;;;3.92;2.00;;;13.90;62.20;;;;;;10268664;28;20030;-61
2021/01/23 20:17:56;;;;;;;2.40;1.63;;;13.90;62.40;;;;;;10269202;28;20027;-61
2021/01/23 20:22:58;;;;;;;2.88;1.83;;;13.90;62.50;;;;;;10283890;28;20480;-61
2021/01/23 20:27:59;;;;;;;3.35;2.08;;;13.80;62.20;;;;;;10284291;28;20110;-60
2021/01/23 20:33:00;;;;;;;3.50;1.80;;;13.80;62.20;;;;;;10272982;28;20023;-61
2021/01/23 20:38:01;;;;;;;2.47;1.83;;;13.80;62.30;;;;;;10277799;28;20043;-61
2021/01/23 20:43:02;;;;;;;3.65;1.80;;;13.80;62.30;;;;;;10260187;28;20035;-61
2021/01/23 20:48:03;;;;;;;3.35;2.10;;;13.80;62.10;;;;;;10277781;28;20023;-61
2021/01/23 20:53:04;;;;;;;2.47;1.60;;;13.80;62.20;;;;;;10283119;28;20118;-61
2021/01/23 20:58:05;;;;;;;3.53;2.15;;;13.80;62.20;;;;;;10280234;28;20126;-61
2021/01/23 21:03:05;;;;;;;2.60;1.77;;;13.80;62.30;;;;;;10276868;28;20095;-62
2021/01/23 21:08:06;;;;;;;3.53;2.10;;;13.80;62.30;;;;;;10270952;28;20154;-61
2021/01/23 21:13:07;;;;;;;3.60;2.28;;;13.80;62.20;;;;;;10266199;28;20463;-61
2021/01/23 21:18:08;;;;;;;2.45;1.95;;;13.80;62.20;;;;;;10258828;28;20041;-61
2021/01/23 21:23:10;;;;;;;3.92;2.53;;;13.80;62.40;;;;;;10271000;28;20038;-61
2021/01/23 21:28:11;;;;;;;3.03;2.10;;;13.70;62.10;;;;;;10279894;28;20024;-61
2021/01/23 21:33:12;;;;;;;4.05;2.30;;;13.70;62.20;;;;;;10269840;28;20487;-61
2021/01/23 21:38:12;;;;;;;2.97;1.88;;;13.70;62.00;;;;;;10283389;28;20037;-61
2021/01/23 21:43:13;;;;;;;4.03;1.98;;;13.80;62.20;;;;;;10270666;28;20114;-62
2021/01/23 21:48:15;;;;;;;4.55;2.60;;;13.70;62.10;;;;;;10267364;28;20510;-62
2021/01/23 21:53:16;;;;;;;3.35;2.40;;;13.70;62.20;;;;;;10287714;28;20042;-62
2021/01/23 21:58:17;;;;;;;3.08;2.13;;;13.70;62.20;;;;;;10279026;28;20038;-61
2021/01/23 22:03:17;;;;;;;2.90;2.40;;;13.70;62.10;;;;;;10275929;28;20109;-61
2021/01/23 22:08:18;;;;;;;3.80;2.65;;;13.70;62.00;;;;;;10271657;28;20123;-61
2021/01/23 22:13:19;;;;;;;3.45;2.45;;;13.70;62.10;;;;;;10271162;28;20102;-61
2021/01/23 22:18:20;;;;;;;3.10;1.95;;;13.70;62.10;;;;;;10261142;28;20177;-61
2021/01/23 22:23:21;;;;;;;3.03;2.30;;;13.70;62.10;;;;;;10257522;28;20049;-61
2021/01/23 22:28:22;;;;;;;3.35;2.45;;;13.70;62.10;;;;;;10281929;28;20102;-61
2021/01/23 22:33:22;;;;;;;3.05;2.17;;;13.60;62.00;;;;;;10276225;28;20035;-61
2021/01/23 22:38:23;;;;;;;3.63;2.95;;;13.60;62.10;;;;;;10265499;28;20154;-61
2021/01/23 22:43:25;;;;;;;4.63;3.15;;;13.60;62.10;;;;;;10257565;28;20031;-61
2021/01/23 22:48:27;;;;;;;4.20;2.55;;;13.60;62.00;;;;;;10253543;28;20023;-61
2021/01/23 22:53:28;;;;;;;3.33;2.50;;;13.60;62.00;;;;;;10272801;28;20037;-61
2021/01/23 22:58:30;;;;;;;3.80;2.90;;;13.60;62.00;;;;;;10278597;28;20375;-62
2021/01/23 23:03:31;;;;;;;4.35;2.67;;;13.60;62.30;;;;;;10268961;28;20118;-61
2021/01/23 23:08:31;;;;;;;4.10;3.05;;;13.60;62.10;;;;;;10261895;28;20028;-62
2021/01/23 23:13:32;;;;;;;2.58;2.22;;;13.60;62.00;;;;;;10280978;28;20042;-62
2021/01/23 23:18:33;;;;;;;4.57;3.22;;;13.60;62.10;;;;;;10265175;28;20042;-60
2021/01/23 23:23:34;;;;;;;3.28;2.58;;;13.60;62.10;;;;;;10277151;28;20081;-61
2021/01/23 23:28:35;;;;;;;3.03;2.40;;;13.60;62.20;;;;;;10275621;28;20050;-61
2021/01/23 23:33:36;;;;;;;4.00;2.67;;;13.50;62.00;;;;;;10265826;28;20015;-61
2021/01/23 23:38:37;;;;;;;4.30;2.88;;;13.50;62.00;;;;;;10279288;28;20024;-61
2021/01/23 23:43:37;;;;;;;4.13;2.47;;;13.50;62.00;;;;;;10260713;28;20026;-61
2021/01/23 23:48:38;;;;;;;4.65;2.90;;;13.50;62.20;;;;;;10283159;28;20030;-61
2021/01/23 23:53:39;;;;;;;4.10;2.88;;;13.50;62.20;;;;;;10288131;28;20085;-61
2021/01/23 23:58:40;;;;;;;3.25;2.65;;;13.50;62.10;;;;;;10282330;28;20106;-60
